createdAt,value
2023-05-16T00:03:12.032Z,82.00
2023-05-16T00:05:39.599Z,83.30
2023-05-16T00:08:06.978Z,82.40
2023-05-16T00:10:34.784Z,83.40
2023-05-16T00:13:03.055Z,83.20
2023-05-16T00:29:10.174Z,83.60
2023-05-16T01:00:20.594Z,85.80
2023-05-16T02:06:23.939Z,89.80
2023-05-16T02:08:51.810Z,90.30
2023-05-16T02:11:19.139Z,90.30
2023-05-16T02:13:46.418Z,90.40
2023-05-16T02:16:13.961Z,90.60
2023-05-16T02:18:42.539Z,90.70
2023-05-16T02:21:09.865Z,90.60
2023-05-16T02:23:37.147Z,90.70
2023-05-16T02:26:05.008Z,90.80
2023-05-16T02:28:32.374Z,90.80
2023-05-16T02:31:01.078Z,90.90
2023-05-16T02:33:29.117Z,91.00
2023-05-16T02:35:56.498Z,90.90
2023-05-16T02:38:26.638Z,90.90
2023-05-16T02:40:56.302Z,90.80
2023-05-16T02:43:23.654Z,90.90
2023-05-16T02:45:51.747Z,91.00
2023-05-16T02:48:21.058Z,90.70
2023-05-16T02:50:51.094Z,90.90
2023-05-16T02:53:19.050Z,91.00
2023-05-16T02:55:46.832Z,90.90
2023-05-16T02:58:15.358Z,91.40
2023-05-16T03:00:43.523Z,91.40
2023-05-16T03:03:12.636Z,91.00
2023-05-16T03:05:42.205Z,91.30
2023-05-16T03:08:09.498Z,91.40
2023-05-16T03:10:36.806Z,91.50
2023-05-16T03:13:04.055Z,91.50
2023-05-16T03:15:32.082Z,91.50
2023-05-16T03:17:59.449Z,91.50
2023-05-16T03:20:26.854Z,91.70
2023-05-16T03:22:54.386Z,91.60
2023-05-16T03:25:21.759Z,91.50
2023-05-16T03:27:49.092Z,91.50
2023-05-16T03:30:19.794Z,91.60
2023-05-16T03:32:47.286Z,91.60
2023-05-16T03:35:15.339Z,91.70
2023-05-16T03:37:42.849Z,91.70
2023-05-16T03:40:11.215Z,91.80
2023-05-16T03:42:38.988Z,91.80
2023-05-16T03:45:07.556Z,91.80
2023-05-16T03:47:34.996Z,92.00
2023-05-16T03:50:02.974Z,92.00
2023-05-16T03:52:30.415Z,92.20
2023-05-16T03:54:58.240Z,92.30
2023-05-16T03:57:25.783Z,92.40
2023-05-16T03:59:53.466Z,92.30
2023-05-16T04:02:20.925Z,92.50
2023-05-16T04:04:48.438Z,92.40
2023-05-16T04:07:15.792Z,92.40
2023-05-16T04:09:43.471Z,92.40
2023-05-16T04:12:14.340Z,92.50
2023-05-16T04:14:42.244Z,92.40
2023-05-16T04:17:11.247Z,92.40
2023-05-16T04:19:39.942Z,92.10
2023-05-16T04:22:09.763Z,92.40
2023-05-16T04:24:38.076Z,92.60
2023-05-16T04:27:09.215Z,92.40
2023-05-16T04:29:48.181Z,92.30
2023-05-16T04:32:17.732Z,92.20
2023-05-16T04:34:48.799Z,92.10
2023-05-16T04:41:09.311Z,92.40
2023-05-16T04:43:40.084Z,92.30
2023-05-16T04:46:08.336Z,92.40
2023-05-16T04:48:35.798Z,92.40
2023-05-16T04:51:03.349Z,92.40
2023-05-16T04:53:30.779Z,92.40
2023-05-16T05:11:46.996Z,91.90
2023-05-16T05:14:14.260Z,91.90
2023-05-16T05:16:41.509Z,91.70
2023-05-16T05:19:09.420Z,91.60
2023-05-16T05:21:37.766Z,91.40
2023-05-16T06:08:25.155Z,85.60
2023-05-16T06:20:23.541Z,85.20
2023-05-16T06:22:51.064Z,84.70
2023-05-16T06:25:19.892Z,85.20
2023-05-16T06:27:47.320Z,85.80
2023-05-16T06:30:15.872Z,86.40
2023-05-16T06:32:43.771Z,85.90
2023-05-16T06:35:11.350Z,85.40
2023-05-16T06:40:41.778Z,85.50
2023-05-16T06:43:14.502Z,84.60
2023-05-16T06:45:41.867Z,85.30
2023-05-16T06:48:09.478Z,85.20
2023-05-16T06:50:37.227Z,84.80
2023-05-16T06:53:06.698Z,84.60
2023-05-16T06:55:34.795Z,84.20
2023-05-16T06:58:03.407Z,84.30
2023-05-16T07:01:21.481Z,84.40
2023-05-16T07:03:49.021Z,85.20
2023-05-16T07:06:16.519Z,85.00
2023-05-16T07:08:43.835Z,85.10
2023-05-16T07:11:12.512Z,84.90
2023-05-16T07:13:39.931Z,85.40
2023-05-16T07:16:08.481Z,85.40
2023-05-16T07:39:25.458Z,85.40
2023-05-16T07:41:53.678Z,85.00
2023-05-16T07:44:22.989Z,83.40
2023-05-16T07:46:51.383Z,83.00
2023-05-16T07:49:19.645Z,82.50
2023-05-16T07:51:47.174Z,83.40
2023-05-16T07:54:14.610Z,82.20
2023-05-16T07:56:41.999Z,81.70
2023-05-16T07:59:10.187Z,81.80
2023-05-16T08:01:37.591Z,81.00
2023-05-16T08:04:06.000Z,81.20
2023-05-16T08:06:34.443Z,80.80
2023-05-16T08:09:01.784Z,80.50
2023-05-16T08:11:34.975Z,80.80
2023-05-16T08:14:04.052Z,80.50
2023-05-16T08:16:32.396Z,80.60
2023-05-16T08:29:00.812Z,81.90
2023-05-16T08:34:35.331Z,81.70
2023-05-16T08:40:15.346Z,80.90
2023-05-16T08:42:50.499Z,81.30
2023-05-16T08:45:23.991Z,81.20
2023-05-16T08:47:55.892Z,80.60
2023-05-16T08:50:24.737Z,80.40
2023-05-16T08:52:53.684Z,80.90
2023-05-16T08:55:22.282Z,80.50
2023-05-16T08:57:51.593Z,80.90
2023-05-16T09:00:20.093Z,81.60
2023-05-16T09:02:48.393Z,80.70
2023-05-16T09:05:17.062Z,81.10
2023-05-16T09:07:45.740Z,81.70
2023-05-16T09:10:13.571Z,82.40
2023-05-16T09:12:42.065Z,82.40
2023-05-16T09:15:11.304Z,82.40
2023-05-16T09:17:42.625Z,82.60
2023-05-16T09:20:14.484Z,83.00
2023-05-16T09:22:52.828Z,81.60
2023-05-16T09:25:30.425Z,81.20
2023-05-16T09:28:01.710Z,80.00
2023-05-16T09:30:55.739Z,79.70
2023-05-16T09:36:34.341Z,78.50
2023-05-16T09:39:02.093Z,77.80
2023-05-16T09:41:34.106Z,77.80
2023-05-16T09:44:05.986Z,78.00
2023-05-16T09:52:32.742Z,76.40
2023-05-16T09:58:47.790Z,76.00
2023-05-16T10:01:15.517Z,74.60
2023-05-16T10:03:43.600Z,75.40
2023-05-16T10:06:14.040Z,73.90
2023-05-16T10:08:49.587Z,73.90
2023-05-16T10:24:16.863Z,72.00
2023-05-16T10:27:08.010Z,72.10
2023-05-16T10:29:53.328Z,72.10
2023-05-16T10:32:30.353Z,70.20
2023-05-16T10:35:01.413Z,72.70
2023-05-16T10:37:35.518Z,73.00
2023-05-16T10:40:38.706Z,71.60
2023-05-16T10:47:25.506Z,71.00
2023-05-16T10:57:59.033Z,69.50
2023-05-16T11:00:26.846Z,66.00
2023-05-16T11:06:08.435Z,65.00
2023-05-16T11:24:34.999Z,61.90
2023-05-16T11:31:00.429Z,61.60
2023-05-16T11:33:31.037Z,60.40
2023-05-16T11:39:29.808Z,59.40
2023-05-16T11:41:59.368Z,59.40
2023-05-16T11:47:20.074Z,59.60
2023-05-16T11:52:54.632Z,60.10
2023-05-16T11:55:40.120Z,60.10
2023-05-16T11:58:08.793Z,59.40
2023-05-16T12:00:36.998Z,59.50
2023-05-16T12:03:06.372Z,60.00
2023-05-16T12:05:35.793Z,59.00
2023-05-16T12:08:04.711Z,59.20
2023-05-16T12:10:36.216Z,54.40
2023-05-16T12:13:05.317Z,54.00
2023-05-16T12:21:56.196Z,54.30
2023-05-16T12:24:31.524Z,55.30
2023-05-16T12:26:59.499Z,55.10
2023-05-16T12:29:58.404Z,52.70
2023-05-16T12:35:38.616Z,52.20
2023-05-16T12:38:08.045Z,52.20
2023-05-16T12:40:39.337Z,51.90
2023-05-16T12:43:20.407Z,52.30
2023-05-16T12:49:05.050Z,52.30
2023-05-16T12:52:06.010Z,51.00
2023-05-16T12:54:38.312Z,50.60
2023-05-16T13:00:51.957Z,51.80
2023-05-16T13:10:41.722Z,50.60
2023-05-16T13:13:21.996Z,53.10
2023-05-16T13:16:37.801Z,50.10
2023-05-16T13:19:06.433Z,50.20
2023-05-16T13:21:34.365Z,49.70
2023-05-16T13:24:02.133Z,49.00
2023-05-16T13:43:42.764Z,48.70
2023-05-16T13:46:53.962Z,49.00
2023-05-16T13:53:59.501Z,49.20
2023-05-16T14:00:03.972Z,47.90
2023-05-16T14:02:26.269Z,47.10
2023-05-16T14:04:55.882Z,47.20
2023-05-16T14:07:23.689Z,45.80
2023-05-16T14:09:51.429Z,46.40
2023-05-16T14:12:21.319Z,47.10
2023-05-16T14:15:22.191Z,46.30
2023-05-16T14:17:50.224Z,47.00
2023-05-16T14:20:17.709Z,47.10
2023-05-16T14:22:45.299Z,47.00
2023-05-16T14:25:13.315Z,45.60
2023-05-16T14:27:45.364Z,45.10
2023-05-16T14:36:27.882Z,45.60
2023-05-16T14:51:32.474Z,46.70
2023-05-16T15:03:19.030Z,46.70
2023-05-16T15:05:48.969Z,46.20
2023-05-16T15:08:17.106Z,45.40
2023-05-16T15:25:56.898Z,46.30
2023-05-16T15:28:25.356Z,46.00
2023-05-16T15:30:52.768Z,46.20
2023-05-16T15:33:20.812Z,46.30
2023-05-16T15:35:52.289Z,44.70
2023-05-16T16:01:08.263Z,44.00
2023-05-16T16:23:38.708Z,45.50
2023-05-16T16:26:08.075Z,45.80
2023-05-16T16:28:52.954Z,44.10
2023-05-16T16:38:18.219Z,45.10
2023-05-16T16:42:20.887Z,44.90
2023-05-16T16:58:26.282Z,45.60
2023-05-16T17:10:19.344Z,45.90
2023-05-16T17:12:49.535Z,45.90
2023-05-16T17:15:46.767Z,44.60
2023-05-16T17:18:14.662Z,45.40
2023-05-16T17:20:43.296Z,45.40
2023-05-16T17:26:33.397Z,46.60
2023-05-16T17:29:08.145Z,46.00
2023-05-16T17:32:30.249Z,45.90
2023-05-16T17:43:06.345Z,45.40
2023-05-16T17:46:15.357Z,45.40
2023-05-16T17:55:05.524Z,46.70
2023-05-16T17:58:06.482Z,46.40
2023-05-16T18:06:46.462Z,47.30
2023-05-16T18:13:07.738Z,46.60
2023-05-16T18:15:37.628Z,46.30
2023-05-16T18:18:49.455Z,45.90
2023-05-16T18:21:23.081Z,46.90
2023-05-16T18:23:54.908Z,46.60
2023-05-16T18:26:24.885Z,46.50
2023-05-16T18:28:52.258Z,47.30
2023-05-16T18:31:20.512Z,47.50
2023-05-16T18:36:58.628Z,46.50
2023-05-16T18:39:26.130Z,47.30
2023-05-16T18:54:00.272Z,48.00
2023-05-16T18:56:32.315Z,48.30
2023-05-16T18:59:06.724Z,48.30
2023-05-16T19:01:35.498Z,48.70
2023-05-16T19:04:02.905Z,48.90
2023-05-16T19:06:30.365Z,49.00
2023-05-16T19:16:59.088Z,49.50
2023-05-16T19:19:26.691Z,49.40
2023-05-16T19:21:54.251Z,49.50
2023-05-16T19:24:24.047Z,49.90
2023-05-16T19:26:51.425Z,49.80
2023-05-16T19:29:21.329Z,50.10
2023-05-16T19:31:48.984Z,49.90
2023-05-16T19:34:16.867Z,50.10
2023-05-16T19:36:45.547Z,49.90
2023-05-16T19:39:12.977Z,50.20
2023-05-16T19:41:40.638Z,50.40
2023-05-16T19:44:08.041Z,50.20
2023-05-16T19:46:35.643Z,50.40
2023-05-16T19:49:03.317Z,50.60
2023-05-16T19:51:40.844Z,51.30
2023-05-16T19:54:09.534Z,51.20
2023-05-16T19:56:36.976Z,50.90
2023-05-16T19:59:04.310Z,50.80
2023-05-16T20:01:32.002Z,50.90
2023-05-16T20:04:00.576Z,51.80
2023-05-16T20:06:28.048Z,51.30
2023-05-16T20:08:56.098Z,51.30
2023-05-16T20:11:24.094Z,51.30
2023-05-16T20:13:51.766Z,51.50
2023-05-16T20:16:20.696Z,51.80
2023-05-16T20:18:48.316Z,51.90
2023-05-16T20:21:16.356Z,52.20
2023-05-16T20:23:43.928Z,52.10
2023-05-16T20:29:20.982Z,52.40
2023-05-16T20:31:48.356Z,53.10
2023-05-16T20:34:15.637Z,52.60
2023-05-16T20:36:42.993Z,52.80
2023-05-16T20:39:10.516Z,53.10
2023-05-16T20:41:37.814Z,53.10
2023-05-16T20:44:06.656Z,53.20
2023-05-16T20:46:34.072Z,53.40
2023-05-16T20:49:01.646Z,53.70
2023-05-16T20:51:29.080Z,53.60
2023-05-16T20:53:56.474Z,53.70
2023-05-16T20:56:23.844Z,53.70
2023-05-16T20:58:51.241Z,53.70
2023-05-16T21:01:18.758Z,53.80
2023-05-16T21:03:46.373Z,54.10
2023-05-16T21:06:14.822Z,54.40
2023-05-16T21:08:42.402Z,54.50
2023-05-16T21:11:09.966Z,54.60
2023-05-16T21:13:37.406Z,54.60
2023-05-16T21:16:04.959Z,54.70
2023-05-16T21:18:32.972Z,54.90
2023-05-16T21:21:00.380Z,55.10
2023-05-16T21:23:28.328Z,55.30
2023-05-16T21:25:55.662Z,55.50
2023-05-16T21:28:25.155Z,55.40
2023-05-16T21:30:52.548Z,55.60
2023-05-16T21:33:19.971Z,55.80
2023-05-16T21:35:47.421Z,55.90
2023-05-16T21:38:14.788Z,56.20
2023-05-16T21:40:42.572Z,56.50
2023-05-16T21:43:09.978Z,56.70
2023-05-16T21:45:37.715Z,56.90
2023-05-16T21:48:06.199Z,56.90
2023-05-16T21:50:33.904Z,57.30
2023-05-16T21:53:01.405Z,57.70
2023-05-16T21:55:29.021Z,57.70
2023-05-16T21:57:56.466Z,57.90
2023-05-16T22:00:24.001Z,58.20
2023-05-16T22:02:51.410Z,58.30
2023-05-16T22:05:19.779Z,58.30
2023-05-16T22:07:47.182Z,58.50
2023-05-16T22:10:16.592Z,58.70
2023-05-16T22:12:43.873Z,58.90
2023-05-16T22:15:11.732Z,58.80
2023-05-16T22:17:39.305Z,59.00
2023-05-16T22:20:10.459Z,59.30
2023-05-16T22:22:37.871Z,59.30
2023-05-16T22:25:05.684Z,59.40
2023-05-16T22:27:32.980Z,59.40
2023-05-16T22:30:00.327Z,59.50
2023-05-16T22:32:27.789Z,59.70
2023-05-16T22:34:55.364Z,59.70
2023-05-16T22:37:22.780Z,59.70
2023-05-16T22:39:51.318Z,59.80
2023-05-16T22:42:18.836Z,59.80
2023-05-16T22:44:46.258Z,60.00
2023-05-16T22:47:13.576Z,60.10
2023-05-16T22:49:41.377Z,60.50
2023-05-16T22:52:10.829Z,60.70
2023-05-16T22:54:38.174Z,60.70
2023-05-16T22:57:05.871Z,60.80
2023-05-16T22:59:34.130Z,60.80
2023-05-16T23:02:01.528Z,61.00
2023-05-16T23:04:28.899Z,61.20
2023-05-16T23:06:56.218Z,61.50
2023-05-16T23:09:23.521Z,61.30
2023-05-16T23:11:51.134Z,61.60
2023-05-16T23:14:18.487Z,61.80
2023-05-16T23:16:45.815Z,61.70
2023-05-16T23:19:13.242Z,62.00
2023-05-16T23:21:40.807Z,62.30
2023-05-16T23:24:08.377Z,62.40
2023-05-16T23:26:36.966Z,62.80
2023-05-16T23:29:04.957Z,62.70
2023-05-16T23:31:32.369Z,63.00
2023-05-16T23:33:59.777Z,62.80
2023-05-16T23:36:27.190Z,63.10
2023-05-16T23:38:54.512Z,63.00
2023-05-16T23:41:21.870Z,63.10
2023-05-16T23:43:49.266Z,63.60
2023-05-16T23:46:16.686Z,63.40
2023-05-16T23:48:44.014Z,63.40
2023-05-16T23:51:11.359Z,63.70
2023-05-16T23:53:38.690Z,63.80
2023-05-16T23:56:06.216Z,63.50
2023-05-16T23:58:33.687Z,64.20
